Berlin, Connecticut
Current Conditions -  °F | °C
As of 4:53 PM on Tuesday 25 Nov 2014 (Local Time) from KMMK Reporting Station
Clear Clear  
Wind Chill: 49°   Ceiling: Unl
Heat Index: 49°   Visibility: 10mi
Dew Point: 28°   Wind: 3mph
Humidity: 44%   Direction: 220°SW
Pressure: 30"   Gusts: NA
Location:  41.611°N, 72.7774°W
Report Text: KMMK 252153Z AUTO 22003KT 10SM CLR 09/M02 A3000 RMK AO2 SLP159 T00941022 TSNO
Loading
Personal Weather Stations






























Interactive Weather Map New forecast layout! Learn more

10-Day Weather Forecast

Advertisements
Track Severe Weather on mobile